Beruri, Brazil
Current Conditions -  °F | °C
As of 7:00 PM on Wednesday 17 Dec 2014 (Local Time) from SBMN Reporting Station
Few Clouds Few Clouds  
Wind Chill: 82°   Ceiling: Unl
Heat Index: 89°   Visibility: 6mi
Dew Point: 75°   Wind: 2mph
Humidity: 79%   Direction: 190°S
Pressure: 29.8"   Gusts: NA
Location:  3.9°S, 61.37°W
Report Text: SBMN 172300Z 19002KT 9999 FEW020 FEW025TCU 28/24 Q1009
Loading
Personal Weather Stations






























Interactive Weather Map New forecast layout! Learn more

10-Day Weather Forecast

Advertisements
Track Severe Weather on mobile